Time;durP1;ratioP1;P1;durP2;ratioP2;P2;SDS_P1;SDS_P2;PMS_P1;PMS_P2;Temp;Humidity;BMP_temperature;BMP_pressure;BME280_temperature;BME280_humidity;BME280_pressure;Samples;Min_cycle;Max_cycle;Signal;HPM_P1;HPM_P2
2022/01/26 00:06:09;;;;;;;22.90;12.83;;;3.60;99.90;3.30;101902.00;;;;5003157;27;92730;-74
2022/01/26 00:08:37;;;;;;;19.63;11.87;;;3.50;99.90;3.20;101906.00;;;;4994466;27;92938;-74
2022/01/26 00:11:03;;;;;;;22.93;12.63;;;3.50;99.90;3.30;101899.00;;;;4988084;28;94319;-74
2022/01/26 00:13:29;;;;;;;28.70;13.73;;;3.50;99.90;3.30;101898.00;;;;4991356;28;123240;-74
2022/01/26 00:15:56;;;;;;;31.67;12.83;;;3.50;99.90;3.20;101895.00;;;;4980179;28;112539;-73
2022/01/26 00:18:23;;;;;;;28.80;13.90;;;3.50;99.90;3.30;101896.00;;;;4994224;28;92924;-71
2022/01/26 00:20:56;;;;;;;24.70;13.90;;;3.50;99.90;3.30;101894.00;;;;4993884;28;94538;-71
2022/01/26 00:23:49;;;;;;;27.33;12.80;;;3.50;99.90;3.30;101885.00;;;;4976191;28;93317;-72
2022/01/26 00:26:23;;;;;;;32.70;14.03;;;3.50;99.90;3.30;101895.00;;;;4994179;28;93116;-72
2022/01/26 00:29:09;;;;;;;26.47;12.63;;;3.50;99.90;3.20;101888.00;;;;4994472;28;92070;-73
2022/01/26 00:40:07;;;;;;;28.20;14.03;;;3.40;99.90;3.20;101889.00;;;;4989138;28;92846;-70
2022/01/26 00:42:37;;;;;;;32.83;14.50;;;3.40;99.90;3.20;101885.00;;;;4974629;28;96148;-71
2022/01/26 00:45:08;;;;;;;26.00;14.33;;;3.40;99.90;3.20;101902.00;;;;4993664;28;93109;-72
2022/01/26 00:47:35;;;;;;;21.70;12.67;;;3.40;99.90;3.20;101886.00;;;;4974416;28;92854;-71
2022/01/26 00:50:07;;;;;;;34.03;14.67;;;3.40;99.90;3.20;101894.00;;;;4988688;28;92741;-71
2022/01/26 00:55:10;;;;;;;36.40;13.23;;;3.40;99.90;3.20;101885.00;;;;5011389;27;92670;-73
2022/01/26 00:57:35;;;;;;;27.10;13.63;;;3.40;99.90;3.10;101889.00;;;;5013618;27;92665;-69
2022/01/26 01:00:10;;;;;;;32.37;14.67;;;3.30;99.90;3.10;101888.00;;;;5012869;27;108896;-74
2022/01/26 01:02:35;;;;;;;29.87;13.77;;;3.40;99.90;3.10;101894.00;;;;4993732;27;101406;-71
2022/01/26 01:05:07;;;;;;;32.00;13.43;;;3.30;99.90;3.10;101889.00;;;;4992480;27;122619;-71
2022/01/26 01:07:37;;;;;;;27.80;14.13;;;3.40;99.90;3.10;101891.00;;;;4993490;28;92878;-71
2022/01/26 01:10:03;;;;;;;32.53;14.47;;;3.30;99.90;3.10;101889.00;;;;4995353;27;92776;-71
2022/01/26 01:12:30;;;;;;;33.90;13.80;;;3.40;99.90;3.10;101885.00;;;;4997071;27;93667;-73
2022/01/26 01:14:56;;;;;;;26.33;15.70;;;3.30;99.90;3.10;101889.00;;;;5012794;27;92938;-74
2022/01/26 01:17:25;;;;;;;33.07;13.93;;;3.30;99.90;3.10;101885.00;;;;4990330;28;92981;-71
2022/01/26 01:22:47;;;;;;;27.10;13.03;;;3.40;99.90;3.10;101897.00;;;;4988191;28;92980;-72
2022/01/26 01:25:57;;;;;;;27.97;14.47;;;3.40;99.90;3.10;101891.00;;;;4990630;28;94782;-73
2022/01/26 01:28:28;;;;;;;25.87;11.73;;;3.40;99.90;3.20;101891.00;;;;4987357;28;93994;-72
2022/01/26 01:30:59;;;;;;;25.53;13.10;;;3.40;99.90;3.10;101880.00;;;;4993777;27;92879;-74
2022/01/26 01:33:33;;;;;;;24.00;12.33;;;3.40;99.90;3.10;101878.00;;;;4992334;28;93357;-70
2022/01/26 01:36:00;;;;;;;31.17;13.17;;;3.40;99.90;3.10;101890.00;;;;4993820;27;93314;-71
2022/01/26 01:38:28;;;;;;;26.77;11.20;;;3.40;99.90;3.10;101877.00;;;;4993177;28;92974;-72
2022/01/26 01:40:54;;;;;;;29.13;11.60;;;3.40;99.90;3.10;101871.00;;;;4993321;27;93187;-71
2022/01/26 01:43:22;;;;;;;20.87;11.47;;;3.40;99.90;3.10;101874.00;;;;4992167;28;101151;-73
2022/01/26 01:45:51;;;;;;;22.93;11.20;;;3.40;99.90;3.10;101870.00;;;;4997833;27;92847;-74
2022/01/26 01:48:23;;;;;;;31.13;13.30;;;3.40;99.90;3.10;101858.00;;;;4994390;27;92986;-71
2022/01/26 01:50:51;;;;;;;21.47;10.93;;;3.40;99.90;3.20;101865.00;;;;4985308;28;92710;-70
2022/01/26 01:53:19;;;;;;;24.47;10.73;;;3.40;99.90;3.10;101870.00;;;;4998883;27;94363;-70
2022/01/26 01:55:49;;;;;;;21.67;10.90;;;3.30;99.90;3.10;101875.00;;;;5012081;27;94486;-70
2022/01/26 01:58:18;;;;;;;22.03;10.50;;;3.40;99.90;3.10;101871.00;;;;5011696;27;92752;-73
2022/01/26 02:00:45;;;;;;;24.70;11.53;;;3.40;99.90;3.10;101863.00;;;;5012455;27;92777;-71
2022/01/26 02:03:11;;;;;;;18.33;10.23;;;3.30;99.90;3.10;101859.00;;;;5011639;27;104917;-71
2022/01/26 02:05:36;;;;;;;23.83;10.63;;;3.40;99.90;3.10;101870.00;;;;5008838;27;109336;-70
2022/01/26 02:08:04;;;;;;;18.60;10.43;;;3.40;99.90;3.10;101876.00;;;;4992112;28;92896;-71
2022/01/26 02:10:31;;;;;;;20.60;11.03;;;3.40;99.90;3.10;101870.00;;;;4992776;27;95652;-73
2022/01/26 02:13:03;;;;;;;19.73;10.27;;;3.40;99.90;3.10;101878.00;;;;5011983;27;93028;-71
2022/01/26 02:15:38;;;;;;;25.53;12.23;;;3.30;99.90;3.10;101865.00;;;;4993462;27;93583;-71
2022/01/26 02:18:22;;;;;;;20.10;11.60;;;3.40;99.90;3.10;101869.00;;;;4991332;28;93582;-71
2022/01/26 02:56:01;;;;;;;19.70;11.80;;;3.30;99.90;3.00;101860.00;;;;4988140;28;93053;-74
2022/01/26 02:58:53;;;;;;;28.93;12.20;;;3.30;99.90;3.00;101855.00;;;;4992584;27;92932;-71
2022/01/26 03:03:54;;;;;;;26.03;10.60;;;3.30;99.90;3.00;101860.00;;;;4990349;28;95786;-72
2022/01/26 03:06:28;;;;;;;23.27;10.57;;;3.30;99.90;3.00;101860.00;;;;4979104;28;93174;-70
2022/01/26 03:09:00;;;;;;;28.30;10.77;;;3.30;99.90;3.00;101848.00;;;;4990955;28;93048;-71
2022/01/26 03:11:28;;;;;;;16.47;9.57;;;3.20;99.90;3.00;101855.00;;;;4991494;27;93595;-71
2022/01/26 03:14:04;;;;;;;22.67;10.77;;;3.20;99.90;3.00;101850.00;;;;4992063;28;93052;-72
2022/01/26 03:16:39;;;;;;;21.60;10.20;;;3.20;99.90;2.90;101852.00;;;;4973020;28;95508;-71
2022/01/26 03:19:19;;;;;;;21.93;9.47;;;3.20;99.90;2.90;101848.00;;;;4976398;27;94353;-72
2022/01/26 03:28:13;;;;;;;18.23;10.70;;;3.20;99.90;2.90;101850.00;;;;4992045;28;92753;-73
2022/01/26 03:28:15;;;;;;;18.90;9.50;;;3.10;99.90;2.90;101836.00;;;;5008242;27;92636;-73
2022/01/26 03:35:39;;;;;;;26.70;10.40;;;3.00;99.90;2.80;101835.00;;;;5008506;27;93072;-73
2022/01/26 03:38:06;;;;;;;25.07;10.80;;;3.00;99.90;2.80;101834.00;;;;5007999;27;94355;-74
2022/01/26 03:40:35;;;;;;;16.23;9.60;;;3.60;99.90;2.70;101832.00;;;;4978486;28;94711;-72
2022/01/26 03:43:01;;;;;;;20.43;8.13;;;3.00;99.90;2.70;101835.00;;;;4976923;28;92773;-72
2022/01/26 03:45:28;;;;;;;15.67;8.93;;;3.00;99.90;2.70;101835.00;;;;5001079;27;92841;-71
2022/01/26 03:47:55;;;;;;;18.17;9.23;;;3.10;99.90;2.70;101831.00;;;;5014189;27;94240;-72
2022/01/26 03:50:22;;;;;;;18.90;9.53;;;2.90;99.90;2.70;101835.00;;;;4995899;27;94208;-74
2022/01/26 03:52:48;;;;;;;19.27;10.13;;;3.50;99.90;2.70;101834.00;;;;5015192;27;92761;-76
2022/01/26 03:55:14;;;;;;;18.10;8.67;;;3.00;99.90;2.70;101847.00;;;;5014038;27;108009;-75
2022/01/26 03:57:39;;;;;;;18.33;9.43;;;3.00;99.90;2.70;101833.00;;;;5014763;27;92983;-74
2022/01/26 04:00:07;;;;;;;23.37;9.80;;;3.60;99.90;2.70;101834.00;;;;5013455;27;119984;-72
2022/01/26 04:02:34;;;;;;;17.70;8.73;;;2.80;99.90;2.70;101829.00;;;;4995394;27;93993;-74
2022/01/26 04:05:04;;;;;;;13.07;8.43;;;2.90;99.90;2.70;101839.00;;;;5013659;27;92677;-75
2022/01/26 04:07:29;;;;;;;20.03;9.17;;;2.90;99.90;2.70;101837.00;;;;4998482;27;92863;-74
2022/01/26 04:10:03;;;;;;;19.27;8.67;;;2.90;99.90;2.70;101838.00;;;;4994400;27;92972;-74
2022/01/26 04:12:30;;;;;;;21.93;10.03;;;2.90;99.90;2.70;101835.00;;;;4976938;28;93551;-73
2022/01/26 04:15:02;;;;;;;19.67;9.63;;;3.60;99.90;2.70;101834.00;;;;4994472;28;93295;-73
2022/01/26 04:17:28;;;;;;;19.80;9.90;;;2.90;99.90;2.70;101836.00;;;;4976457;28;93046;-77
2022/01/26 04:19:57;;;;;;;22.00;9.57;;;2.90;99.90;2.70;101832.00;;;;4994494;27;110773;-74
2022/01/26 04:22:30;;;;;;;14.13;8.67;;;3.00;99.90;2.70;101836.00;;;;5009288;27;93306;-76
2022/01/26 04:24:56;;;;;;;19.80;9.83;;;2.90;99.90;2.70;101827.00;;;;5014692;27;92966;-78
2022/01/26 04:27:32;;;;;;;20.63;8.97;;;2.90;99.90;2.70;101827.00;;;;5013958;27;94833;-75
2022/01/26 04:29:58;;;;;;;12.77;7.43;;;2.90;99.90;2.70;101825.00;;;;5013930;27;94445;-77
2022/01/26 04:32:24;;;;;;;16.20;8.17;;;2.90;99.90;2.70;101826.00;;;;4978056;27;113007;-76
2022/01/26 04:34:50;;;;;;;18.90;9.00;;;2.90;99.90;2.70;101832.00;;;;5004883;27;92723;-76
2022/01/26 04:37:47;;;;;;;14.60;8.47;;;2.90;99.90;2.70;101825.00;;;;4975557;28;93021;-74
2022/01/26 04:40:16;;;;;;;15.83;7.47;;;2.90;99.90;2.70;101824.00;;;;4980032;27;93333;-74
2022/01/26 04:42:52;;;;;;;19.23;8.60;;;2.90;99.90;2.70;101814.00;;;;4994352;28;92785;-75
2022/01/26 04:45:18;;;;;;;17.13;7.97;;;2.90;99.90;2.70;101815.00;;;;4998949;27;92404;-75
2022/01/26 04:47:44;;;;;;;17.03;8.77;;;2.90;99.90;2.70;101807.00;;;;4994273;27;93485;-73
2022/01/26 04:50:11;;;;;;;16.40;8.63;;;2.90;99.90;2.70;101822.00;;;;5012536;27;122471;-72
2022/01/26 04:52:38;;;;;;;20.37;8.90;;;2.90;99.90;2.70;101813.00;;;;4995040;27;93851;-76
2022/01/26 04:55:04;;;;;;;19.40;8.90;;;2.90;99.90;2.70;101823.00;;;;4975576;28;92830;-76
2022/01/26 04:57:30;;;;;;;18.20;8.43;;;2.90;99.90;2.70;101815.00;;;;4974306;28;98604;-74
2022/01/26 04:59:56;;;;;;;12.97;8.27;;;3.00;99.90;2.70;101803.00;;;;4974815;27;108444;-76
2022/01/26 05:02:21;;;;;;;20.07;8.73;;;2.90;99.90;2.70;101798.00;;;;4999131;27;92890;-77
2022/01/26 05:04:47;;;;;;;17.60;8.00;;;2.90;99.90;2.70;101805.00;;;;5014629;27;92908;-76
2022/01/26 05:07:13;;;;;;;15.67;8.53;;;2.90;99.90;2.70;101804.00;;;;4969442;28;120238;-75
2022/01/26 05:09:40;;;;;;;16.93;8.83;;;2.90;99.90;2.70;101802.00;;;;4975377;28;93173;-75
2022/01/26 05:12:06;;;;;;;15.77;8.17;;;2.90;99.90;2.70;101805.00;;;;4991368;28;92915;-72
2022/01/26 05:14:32;;;;;;;19.03;8.07;;;2.90;99.90;2.70;101789.00;;;;4992231;28;93005;-75
2022/01/26 05:16:58;;;;;;;14.27;8.20;;;2.90;99.90;2.70;101792.00;;;;4993046;28;94301;-74
2022/01/26 05:19:24;;;;;;;12.73;7.60;;;2.90;99.90;2.70;101784.00;;;;4973698;28;94467;-74
2022/01/26 05:21:49;;;;;;;13.07;8.07;;;2.90;99.90;2.70;101776.00;;;;4975280;28;92959;-76
2022/01/26 05:24:15;;;;;;;11.17;6.80;;;2.90;99.90;2.70;101783.00;;;;5003208;27;92768;-72
2022/01/26 05:26:41;;;;;;;17.13;8.17;;;2.90;99.90;2.60;101778.00;;;;5013765;27;93058;-75
2022/01/26 05:29:07;;;;;;;18.63;8.10;;;2.90;99.90;2.60;101775.00;;;;5012698;27;122664;-75
2022/01/26 05:31:33;;;;;;;12.60;7.60;;;2.80;99.90;2.60;101774.00;;;;4973246;28;110001;-74
2022/01/26 05:33:59;;;;;;;13.57;7.53;;;2.90;99.90;2.60;101779.00;;;;4997592;27;92467;-74
2022/01/26 05:36:25;;;;;;;12.37;6.77;;;2.90;99.90;2.60;101765.00;;;;4999847;27;93741;-73
2022/01/26 05:38:50;;;;;;;12.53;7.70;;;2.80;99.90;2.60;101779.00;;;;4972102;28;93068;-73
2022/01/26 05:41:16;;;;;;;13.10;7.07;;;2.80;99.90;2.50;101774.00;;;;4996595;27;110903;-74
2022/01/26 05:43:45;;;;;;;12.60;6.63;;;2.80;99.90;2.50;101769.00;;;;5010416;27;92842;-73
2022/01/26 05:46:17;;;;;;;14.60;7.00;;;2.80;99.90;2.50;101781.00;;;;5003401;27;93145;-73
2022/01/26 05:48:45;;;;;;;12.57;6.27;;;2.80;99.90;2.50;101775.00;;;;5009752;27;93739;-77
2022/01/26 05:51:12;;;;;;;11.97;6.30;;;4.40;99.90;2.50;101772.00;;;;5003304;27;92694;-75
2022/01/26 05:53:40;;;;;;;10.97;6.93;;;2.70;99.90;2.50;101768.00;;;;4985265;27;93508;-74
2022/01/26 05:56:06;;;;;;;13.10;6.10;;;2.70;99.90;2.40;101774.00;;;;4990538;27;94413;-77
2022/01/26 05:58:32;;;;;;;12.80;6.43;;;2.70;99.90;2.40;101764.00;;;;4987324;28;93844;-75
2022/01/26 06:01:00;;;;;;;12.83;5.47;;;2.70;99.90;2.40;101770.00;;;;4999447;27;99866;-75
2022/01/26 06:03:27;;;;;;;10.67;6.03;;;2.70;99.90;2.40;101768.00;;;;5009791;27;92838;-75
2022/01/26 06:05:54;;;;;;;9.50;6.03;;;2.60;99.90;2.40;101777.00;;;;4985830;27;103594;-75
2022/01/26 06:08:21;;;;;;;7.63;5.97;;;2.60;99.90;2.40;101770.00;;;;4991230;27;93735;-72
2022/01/26 06:10:48;;;;;;;13.77;6.10;;;2.80;99.90;2.40;101772.00;;;;4986129;28;92862;-74
2022/01/26 06:13:14;;;;;;;11.53;6.13;;;2.60;99.90;2.40;101776.00;;;;4992597;28;93088;-76
2022/01/26 06:15:40;;;;;;;10.83;6.23;;;2.60;99.90;2.40;101787.00;;;;4991390;28;123875;-76
2022/01/26 06:18:05;;;;;;;13.47;6.77;;;2.90;99.90;2.40;101781.00;;;;4991954;28;93538;-78
2022/01/26 06:20:32;;;;;;;15.87;6.40;;;2.60;99.90;2.30;101780.00;;;;4997672;27;110610;-78
2022/01/26 06:22:57;;;;;;;8.37;5.80;;;2.60;99.90;2.30;101787.00;;;;5011494;27;92257;-76
2022/01/26 06:25:23;;;;;;;10.07;5.43;;;2.60;99.90;2.30;101778.00;;;;5011689;27;111629;-76
2022/01/26 06:27:51;;;;;;;15.97;6.43;;;2.60;99.90;2.30;101780.00;;;;4996690;27;104777;-75
2022/01/26 06:30:18;;;;;;;13.87;6.67;;;2.60;99.90;2.30;101783.00;;;;4993560;27;93777;-76
2022/01/26 06:32:44;;;;;;;14.80;6.57;;;2.60;99.90;2.40;101789.00;;;;4974250;28;92863;-79
2022/01/26 06:35:11;;;;;;;15.47;6.70;;;2.60;99.90;2.40;101778.00;;;;4984349;28;93644;-80
2022/01/26 06:37:37;;;;;;;16.60;6.20;;;2.50;99.90;2.30;101789.00;;;;4973293;28;95082;-77
2022/01/26 06:40:04;;;;;;;12.13;6.13;;;2.60;99.90;2.30;101783.00;;;;4974454;27;92966;-77
2022/01/26 06:42:37;;;;;;;11.37;6.23;;;2.60;99.90;2.40;101793.00;;;;4992907;27;92993;-75
2022/01/26 06:49:55;;;;;;;12.67;6.90;;;2.60;99.90;2.30;101800.00;;;;5008230;27;100003;-70
2022/01/26 06:52:21;;;;;;;11.30;6.10;;;2.60;99.90;2.30;101801.00;;;;5010568;27;109987;-71
2022/01/26 06:54:46;;;;;;;11.27;6.77;;;2.60;99.90;2.30;101794.00;;;;4991426;27;123131;-71
2022/01/26 06:57:12;;;;;;;10.87;6.70;;;2.60;99.90;2.30;101791.00;;;;5009997;27;123195;-70
2022/01/26 06:59:38;;;;;;;11.67;6.33;;;2.50;99.90;2.30;101794.00;;;;5011661;27;110238;-70
2022/01/26 07:02:04;;;;;;;10.33;5.80;;;2.50;99.90;2.30;101791.00;;;;4975342;28;94029;-71
2022/01/26 07:04:29;;;;;;;14.40;7.17;;;2.60;99.90;2.30;101788.00;;;;4991995;28;93786;-72
2022/01/26 07:06:56;;;;;;;9.00;6.13;;;2.70;99.90;2.30;101788.00;;;;5007732;27;122903;-70
2022/01/26 07:09:22;;;;;;;11.23;6.10;;;2.60;99.90;2.30;101785.00;;;;4993821;27;92819;-69
2022/01/26 07:11:47;;;;;;;9.43;5.87;;;2.50;99.90;2.30;101791.00;;;;5009868;27;108844;-70
2022/01/26 07:14:24;;;;;;;13.57;8.07;;;2.50;99.90;2.30;101780.00;;;;5010447;27;124084;-72
2022/01/26 07:19:50;;;;;;;9.67;5.83;;;2.50;99.90;2.30;101785.00;;;;5012046;27;93889;-72
2022/01/26 07:22:16;;;;;;;9.67;6.50;;;2.60;99.90;2.30;101791.00;;;;4991991;27;92778;-72
2022/01/26 07:24:42;;;;;;;16.00;7.17;;;2.60;99.90;2.30;101786.00;;;;5009351;27;122205;-72
2022/01/26 07:27:09;;;;;;;12.57;6.77;;;2.60;99.90;2.30;101785.00;;;;5010244;27;123325;-73
2022/01/26 07:29:35;;;;;;;15.77;8.10;;;2.60;99.90;2.30;101798.00;;;;4964656;28;92975;-75
2022/01/26 07:32:04;;;;;;;12.13;7.47;;;2.50;99.90;2.30;101795.00;;;;4985326;28;92791;-72
2022/01/26 07:34:29;;;;;;;15.20;7.30;;;2.60;99.90;2.30;101780.00;;;;4990046;28;93285;-72
2022/01/26 07:37:00;;;;;;;14.30;6.93;;;2.60;99.90;2.40;101799.00;;;;4990883;28;123121;-70
2022/01/26 07:39:48;;;;;;;15.37;8.00;;;2.60;99.90;2.30;101788.00;;;;4972603;28;92822;-74
2022/01/26 07:42:14;;;;;;;14.03;8.27;;;2.60;99.90;2.30;101793.00;;;;4991415;28;92903;-72
2022/01/26 07:44:41;;;;;;;14.77;7.87;;;2.60;99.90;2.30;101781.00;;;;4990984;28;93930;-73
2022/01/26 07:47:07;;;;;;;17.70;7.60;;;2.70;99.90;2.30;101775.00;;;;4991607;27;94606;-72
2022/01/26 07:49:33;;;;;;;13.90;7.53;;;2.60;99.90;2.30;101779.00;;;;5004735;27;92851;-72
2022/01/26 07:51:58;;;;;;;9.90;6.53;;;2.60;99.90;2.30;101790.00;;;;5008847;27;108949;-75
2022/01/26 07:54:25;;;;;;;16.13;7.23;;;2.50;99.90;2.30;101783.00;;;;4974920;27;95315;-72
2022/01/26 07:56:51;;;;;;;11.30;7.97;;;2.60;99.90;2.30;101783.00;;;;4976129;27;93449;-72
2022/01/26 07:59:16;;;;;;;20.83;9.03;;;2.60;99.90;2.30;101783.00;;;;5010531;27;110663;-73
2022/01/26 08:01:42;;;;;;;16.50;9.53;;;2.60;99.90;2.30;101791.00;;;;4992860;27;92067;-72
2022/01/26 08:04:08;;;;;;;16.20;9.40;;;2.60;99.90;2.30;101783.00;;;;5010183;27;122148;-75
2022/01/26 08:06:33;;;;;;;21.23;11.50;;;2.50;99.90;2.30;101782.00;;;;4977746;27;120890;-78
2022/01/26 08:08:59;;;;;;;18.03;9.57;;;2.50;99.90;2.40;101783.00;;;;4987060;28;93618;-77
2022/01/26 08:11:24;;;;;;;16.00;8.80;;;2.60;99.90;2.40;101778.00;;;;4987932;28;108807;-78
2022/01/26 08:13:51;;;;;;;16.10;8.63;;;2.60;99.90;2.40;101780.00;;;;4990136;27;122743;-77
2022/01/26 08:16:17;;;;;;;16.80;9.97;;;2.70;99.90;2.40;101792.00;;;;5008408;27;104085;-72
2022/01/26 08:18:43;;;;;;;22.03;10.27;;;2.60;99.90;2.40;101787.00;;;;4970484;28;109617;-73
2022/01/26 08:21:09;;;;;;;19.20;10.43;;;3.10;99.90;2.40;101792.00;;;;4991609;27;92984;-76
2022/01/26 08:23:36;;;;;;;27.27;12.47;;;2.60;99.90;2.50;101785.00;;;;4979749;27;93846;-72
2022/01/26 08:26:04;;;;;;;21.63;11.10;;;3.60;99.90;2.50;101792.00;;;;4977347;28;94048;-75
2022/01/26 08:28:37;;;;;;;22.00;11.13;;;2.70;99.90;2.50;101791.00;;;;4993533;28;93218;-77
2022/01/26 08:31:03;;;;;;;26.43;11.90;;;2.70;99.90;2.40;101795.00;;;;4984415;28;92987;-78
2022/01/26 08:33:29;;;;;;;24.33;12.07;;;2.80;99.90;2.50;101779.00;;;;4974161;28;94313;-78
2022/01/26 08:35:54;;;;;;;23.37;11.13;;;2.70;99.90;2.50;101793.00;;;;4957445;28;103292;-77
2022/01/26 08:38:21;;;;;;;24.67;12.03;;;2.70;99.90;2.50;101797.00;;;;4992062;28;112650;-77
2022/01/26 08:40:47;;;;;;;17.60;10.63;;;2.70;99.90;2.60;101788.00;;;;4974290;28;93633;-76
2022/01/26 08:43:14;;;;;;;22.67;10.20;;;2.80;99.90;2.60;101782.00;;;;4974858;28;92999;-75
2022/01/26 08:45:40;;;;;;;23.93;12.03;;;3.00;99.90;2.60;101777.00;;;;5005119;27;121083;-76
2022/01/26 08:48:05;;;;;;;21.83;10.37;;;2.80;99.90;2.60;101791.00;;;;4993857;27;92740;-74
2022/01/26 08:50:32;;;;;;;23.23;11.67;;;2.90;99.90;2.60;101791.00;;;;5014071;27;92118;-77
2022/01/26 08:52:58;;;;;;;22.07;9.70;;;2.80;99.90;2.60;101796.00;;;;5011135;27;105038;-76
2022/01/26 08:55:24;;;;;;;20.73;10.20;;;2.80;99.90;2.60;101795.00;;;;4981710;28;93230;-73
2022/01/26 08:57:49;;;;;;;17.20;10.53;;;2.90;99.90;2.60;101776.00;;;;4980009;28;93991;-73
2022/01/26 09:00:17;;;;;;;23.50;11.20;;;2.80;99.90;2.60;101790.00;;;;4975127;27;108782;-74
2022/01/26 09:02:43;;;;;;;19.73;10.70;;;2.90;99.90;2.60;101785.00;;;;4974416;28;95922;-77
2022/01/26 09:05:09;;;;;;;12.27;8.27;;;2.90;99.90;2.60;101796.00;;;;4975498;27;93705;-72
2022/01/26 09:07:36;;;;;;;20.30;10.67;;;2.90;99.90;2.60;101779.00;;;;4993875;27;92935;-73
2022/01/26 09:10:04;;;;;;;19.27;10.23;;;2.90;99.90;2.60;101799.00;;;;4994125;27;92844;-73
2022/01/26 09:12:32;;;;;;;20.17;9.67;;;2.90;99.90;2.60;101795.00;;;;4994940;27;94150;-74
2022/01/26 09:15:02;;;;;;;30.20;10.50;;;2.80;99.90;2.60;101795.00;;;;5013474;27;93831;-73
2022/01/26 09:17:30;;;;;;;17.73;9.40;;;2.80;99.90;2.60;101795.00;;;;4992348;28;92978;-72
2022/01/26 09:19:59;;;;;;;25.63;9.07;;;2.90;99.90;2.60;101783.00;;;;4994676;28;93308;-72
2022/01/26 09:22:25;;;;;;;20.90;8.53;;;2.80;99.90;2.60;101785.00;;;;4995012;27;93661;-74
2022/01/26 09:24:50;;;;;;;14.83;8.30;;;2.80;99.90;2.60;101796.00;;;;5011508;27;123921;-73
2022/01/26 09:27:17;;;;;;;18.10;7.90;;;2.80;99.90;2.60;101783.00;;;;5013810;27;92847;-74
2022/01/26 09:29:45;;;;;;;15.93;9.13;;;2.90;99.90;2.60;101794.00;;;;5014208;27;92653;-73
2022/01/26 09:32:11;;;;;;;18.43;8.93;;;2.80;99.90;2.60;101803.00;;;;5012638;27;93620;-73
2022/01/26 09:34:39;;;;;;;18.20;9.13;;;2.90;99.90;2.70;101799.00;;;;4994520;27;93002;-72
2022/01/26 09:37:12;;;;;;;16.60;9.23;;;2.80;99.90;2.70;101790.00;;;;4991552;28;92997;-72
2022/01/26 09:39:40;;;;;;;17.57;8.00;;;2.90;99.90;2.70;101779.00;;;;5008887;27;92126;-69
2022/01/26 09:42:07;;;;;;;19.57;9.90;;;2.90;99.90;2.70;101779.00;;;;4998500;27;93508;-72
2022/01/26 09:44:33;;;;;;;14.00;8.07;;;2.90;99.90;2.70;101770.00;;;;4993695;28;93371;-70
2022/01/26 09:47:00;;;;;;;19.70;9.47;;;2.90;99.90;2.70;101772.00;;;;4987092;28;94218;-69
2022/01/26 09:49:32;;;;;;;19.90;10.30;;;3.00;99.90;2.70;101762.00;;;;4975472;28;93109;-72
2022/01/26 09:52:06;;;;;;;19.10;9.97;;;3.00;99.90;2.70;101761.00;;;;4992193;27;94061;-73
2022/01/26 09:54:32;;;;;;;20.20;9.97;;;3.00;99.90;2.70;101772.00;;;;4992809;27;93675;-72
2022/01/26 09:57:03;;;;;;;22.33;9.97;;;3.00;99.90;2.80;101764.00;;;;5012295;27;93059;-71
2022/01/26 09:59:31;;;;;;;19.30;9.57;;;3.00;99.90;2.80;101753.00;;;;5012491;27;92791;-71
2022/01/26 10:01:58;;;;;;;23.63;9.97;;;3.00;99.90;2.80;101772.00;;;;5013529;27;93031;-74
2022/01/26 10:04:39;;;;;;;22.30;9.17;;;3.00;99.90;2.80;101761.00;;;;5011134;27;93722;-72
2022/01/26 10:07:43;;;;;;;22.17;9.80;;;3.00;99.90;2.80;101764.00;;;;4975542;28;92818;-73
2022/01/26 10:15:45;;;;;;;18.70;9.17;;;3.10;99.90;2.80;101774.00;;;;4991611;27;93547;-73
2022/01/26 10:18:16;;;;;;;15.67;8.97;;;3.10;99.90;2.80;101771.00;;;;4993839;27;92965;-73
2022/01/26 10:20:51;;;;;;;20.53;10.20;;;3.10;99.90;2.80;101761.00;;;;5013269;27;92855;-71
2022/01/26 10:23:38;;;;;;;19.80;9.43;;;3.00;99.90;2.70;101764.00;;;;5011874;27;93550;-72
2022/01/26 10:26:13;;;;;;;18.33;7.93;;;3.00;99.90;2.80;101769.00;;;;5012734;27;92785;-72
2022/01/26 10:29:02;;;;;;;21.40;8.37;;;3.00;99.90;2.80;101776.00;;;;5012826;27;92803;-72
2022/01/26 10:31:32;;;;;;;18.80;9.17;;;3.10;99.90;2.80;101769.00;;;;4976084;27;92767;-73
2022/01/26 10:34:09;;;;;;;16.77;8.83;;;3.00;99.90;2.80;101771.00;;;;4992955;27;95585;-75
2022/01/26 10:36:47;;;;;;;19.17;7.90;;;3.00;99.90;2.80;101779.00;;;;4972493;27;93687;-71
2022/01/26 10:39:28;;;;;;;19.40;8.10;;;3.00;99.90;2.80;101760.00;;;;4992203;28;93741;-70
2022/01/26 10:41:59;;;;;;;18.43;8.33;;;3.10;99.90;2.80;101765.00;;;;4988516;28;92904;-72
2022/01/26 10:45:04;;;;;;;12.57;6.93;;;3.00;99.90;2.80;101756.00;;;;4974046;28;93080;-72
2022/01/26 10:47:36;;;;;;;13.07;8.23;;;3.10;99.90;2.80;101749.00;;;;4972489;28;93322;-71
2022/01/26 10:50:31;;;;;;;18.07;8.43;;;3.10;99.90;2.80;101753.00;;;;4993727;27;92801;-72
2022/01/26 10:53:07;;;;;;;15.23;8.77;;;3.00;99.90;2.90;101737.00;;;;4996245;27;92963;-71
2022/01/26 10:55:36;;;;;;;14.03;7.67;;;3.10;99.90;2.90;101742.00;;;;5012676;27;94251;-72
2022/01/26 10:58:02;;;;;;;10.47;6.97;;;3.10;99.90;2.90;101750.00;;;;5012441;27;93638;-69
2022/01/26 11:00:34;;;;;;;16.27;7.57;;;3.20;99.90;3.00;101747.00;;;;5007320;27;93295;-74
2022/01/26 11:03:00;;;;;;;15.33;7.93;;;3.20;99.90;3.00;101751.00;;;;4991783;28;93196;-73
2022/01/26 11:05:26;;;;;;;15.67;6.93;;;3.20;99.90;3.00;101746.00;;;;4991664;27;124127;-73
2022/01/26 11:07:52;;;;;;;17.70;8.10;;;3.20;99.90;3.00;101754.00;;;;4992133;28;94672;-71
2022/01/26 11:10:19;;;;;;;15.43;8.23;;;3.20;99.90;3.00;101743.00;;;;4992365;27;92887;-72
2022/01/26 11:12:44;;;;;;;13.83;8.07;;;3.20;99.90;3.00;101739.00;;;;4973260;28;92860;-73
2022/01/26 11:15:15;;;;;;;13.73;6.80;;;3.90;99.90;3.10;101742.00;;;;4994361;27;94024;-71
2022/01/26 11:17:46;;;;;;;13.67;7.50;;;3.30;99.90;3.10;101743.00;;;;5010713;27;93963;-72
2022/01/26 11:20:21;;;;;;;11.93;7.27;;;3.30;99.90;3.10;101731.00;;;;4993958;27;92990;-73
2022/01/26 11:23:02;;;;;;;12.67;6.90;;;3.40;99.90;3.20;101740.00;;;;4993741;27;92202;-72
2022/01/26 11:25:38;;;;;;;16.30;8.13;;;3.30;99.90;3.20;101742.00;;;;4981051;28;92991;-73
2022/01/26 11:28:25;;;;;;;15.03;7.80;;;3.30;99.90;3.10;101752.00;;;;4972908;28;101811;-70
2022/01/26 11:30:53;;;;;;;11.97;7.03;;;3.40;99.90;3.10;101760.00;;;;5002341;27;94657;-73
2022/01/26 11:33:23;;;;;;;14.73;7.43;;;3.40;99.90;3.10;101764.00;;;;4997406;27;93058;-73
2022/01/26 11:35:51;;;;;;;10.87;6.83;;;3.40;99.90;3.10;101759.00;;;;5003230;27;93266;-74
2022/01/26 11:46:36;;;;;;;9.83;5.00;;;3.30;99.90;3.10;101754.00;;;;4980932;28;92665;-74
2022/01/26 11:49:11;;;;;;;9.10;6.37;;;3.30;99.90;3.10;101761.00;;;;4972083;28;105746;-72
2022/01/26 11:51:44;;;;;;;8.60;5.63;;;3.40;99.90;3.10;101756.00;;;;4971842;28;109835;-72
2022/01/26 11:54:20;;;;;;;10.97;5.67;;;3.30;99.90;3.10;101758.00;;;;4989270;27;92990;-75
2022/01/26 11:57:04;;;;;;;11.47;6.00;;;3.40;99.90;3.10;101756.00;;;;4955135;28;96880;-71
2022/01/26 11:59:32;;;;;;;11.63;5.73;;;3.40;99.90;3.10;101750.00;;;;4994172;27;93973;-73
2022/01/26 12:02:06;;;;;;;18.33;6.10;;;3.40;99.90;3.10;101752.00;;;;5005450;27;92884;-72
2022/01/26 12:04:37;;;;;;;11.33;6.23;;;3.40;99.90;3.10;101759.00;;;;5015617;27;92999;-74
2022/01/26 12:07:22;;;;;;;14.67;6.13;;;3.40;99.90;3.20;101745.00;;;;4977654;28;94042;-72
2022/01/26 12:09:48;;;;;;;10.47;5.00;;;3.40;99.90;3.20;101741.00;;;;4995041;28;92898;-73
2022/01/26 12:12:19;;;;;;;7.80;4.43;;;3.40;99.90;3.10;101747.00;;;;5014948;27;92871;-71
2022/01/26 12:15:15;;;;;;;9.13;5.30;;;3.40;99.90;3.10;101746.00;;;;4997062;27;92217;-71
2022/01/26 12:18:12;;;;;;;11.10;6.50;;;3.30;99.90;3.10;101740.00;;;;4992781;27;95446;-75
2022/01/26 12:37:11;;;;;;;9.97;5.37;;;3.30;99.90;3.10;101745.00;;;;4988376;28;92771;-74
2022/01/26 12:45:20;;;;;;;16.57;6.30;;;3.20;99.90;2.90;101713.00;;;;4992162;28;93126;-73
2022/01/26 12:47:47;;;;;;;8.87;6.03;;;3.20;99.90;3.00;101730.00;;;;4975477;28;93194;-71
2022/01/26 12:50:14;;;;;;;12.67;6.60;;;3.20;99.90;3.00;101714.00;;;;4977564;27;100021;-73